Nearby METAR Reports

 

KMTN - Baltimore/Martin, Maryland, USA
Distance from station: SSE 8mi, 13km
Updated: Fri, 24-Oct-2014 1:45pm EDT
Partly cloudy
Partly cloudy
 Wind from WNW
Wind: WNW 17 mph , 28 km/h
Temperature: 66°F , 19°C
Dew Point: 46°F , 8°C
Humidity: 49%
Barometer: 29.89 inHg , 1012.2 hPa
Clouds: Partly cloudy
Visibility: 10 miles , 16 km
Cloud details: Partly cloudy 12000 ft
Partly cloudy 20000 ft
2014/10/24 17:45 KMTN 241745Z 29015KT 10SM SCT120 SCT200 19/08 A2989
KDMH - Baltimore/Dwntwn, Maryland, USA
Distance from station: SW 12mi, 19km
Updated: Fri, 24-Oct-2014 1:54pm EDT

 
Temperature: 66°F , 19°C
Dew Point: 39°F , 4°C
Humidity: 37%
Barometer: 29.90 inHg , 1012.5 hPa
2014/10/24 17:54 KDMH 241754Z AUTO 19/04 A2990 RMK AO1 SLP124 T01890039 10189 20133 58017
 
KBWI - Balto/Wash Intl, Maryland, USA
Distance from station: SSW 20mi, 33km
Updated: Fri, 24-Oct-2014 9:54am EDT
NOT Current
Partly cloudy
Partly cloudy
 Wind from NW
Wind: NW 20 mph , 31 km/h, Gust: 28 mph , 44 km/h
Temperature: 59°F , 15°C
Dew Point: 43°F , 6°C
Humidity: 55%
Barometer: 29.95 inHg , 1014.2 hPa
Clouds: Partly cloudy
Visibility: 10 miles , 16 km
Cloud details: Few Clouds 16000 ft
Partly cloudy 25000 ft
2014/10/24 13:54 KBWI 241354Z 31017G24KT 10SM FEW160 SCT250 15/06 A2995 RMK AO2 SLP141 T01500056
KDMW - Carroll Cnty, Maryland, USA
Distance from station: WNW 30mi, 48km
Updated: Fri, 24-Oct-2014 2:35pm EDT
Clear
Clear
 Wind from NW
Wind: NW 13 mph , 20 km/h, Gust: 21 mph , 33 km/h
Temperature: 64°F , 18°C
Dew Point: 32°F , 0°C
Humidity: 30%
Barometer: 29.90 inHg , 1012.5 hPa
Clouds: Clear
Visibility: 10 miles , 16 km
2014/10/24 18:35 KDMW 241835Z AUTO 32011G18KT 10SM CLR 18/00 A2990 RMK AO2
 
KNAK - Annapolis/Naval, Maryland, USA
Distance from station: S 30mi, 48km
Updated: Fri, 24-Oct-2014 1:54pm EDT
Clear
Clear
 Wind from NW
Wind: NW 8 mph , 13 km/h
Temperature: 64°F , 18°C
Dew Point: 43°F , 6°C
Humidity: 46%
Barometer: 29.89 inHg , 1012.2 hPa
Clouds: Clear
Visibility: 10 miles , 16 km
2014/10/24 17:54 KNAK 241754Z AUTO 32007KT 10SM CLR 18/06 A2989 RMK AO2 SLP122 T01830056 10183 20122 58018
KW29 - Stevensville, Maryland, USA
Distance from station: SSE 31mi, 50km
Updated: Fri, 24-Oct-2014 2:37pm EDT

 Wind from NW
Wind: NW 9 mph , 15 km/h
Temperature: 64°F , 18°C
Dew Point: 43°F , 6°C
Humidity: 46%
Barometer: 29.87 inHg , 1011.5 hPa
Visibility: 10 miles , 16 km
2014/10/24 18:37 KW29 241837Z AUTO 31008KT 10SM 18/06 A2987 RMK AO1
 
KCGS - College Park, Maryland, USA
Distance from station: SW 38mi, 61km
Updated: Fri, 24-Oct-2014 2:35pm EDT
Clear
Clear
 Wind from WNW
Wind: WNW 10 mph , 17 km/h, Gust: 17 mph , 28 km/h
Temperature: 66°F , 19°C
Dew Point: 37°F , 3°C
Humidity: 35%
Barometer: 29.89 inHg , 1012.2 hPa
Clouds: Clear
Visibility: 10 miles , 16 km
2014/10/24 18:35 KCGS 241835Z AUTO 29009G15KT 10SM CLR 19/03 A2989 RMK AO1
KGAI - Gaithersburg, Maryland, USA
Distance from station: WSW 40mi, 65km
Updated: Fri, 24-Oct-2014 2:35pm EDT
Clear
Clear
 Wind from WNW
Wind: WNW 12 mph , 19 km/h, Gust: 18 mph , 30 km/h
Temperature: 61°F , 16°C
Dew Point: 39°F , 4°C
Humidity: 45%
Barometer: 29.94 inHg , 1013.9 hPa
Clouds: Clear
Visibility: 10 miles , 16 km
2014/10/24 18:35 KGAI 241835Z 29010G16KT 10SM CLR 16/04 A2994 RMK AO1
 
KTHV - York, Pennsylvania, USA
Distance from station: NNW 40mi, 65km
Updated: Fri, 24-Oct-2014 1:53pm EDT
Clear
Clear
 Wind from WNW
Wind: WNW 10 mph , 17 km/h
Temperature: 64°F , 18°C
Dew Point: 34°F , 1°C
Humidity: 32%
Barometer: 29.90 inHg , 1012.5 hPa
Clouds: Clear
Visibility: 10 miles , 16 km
2014/10/24 17:53 KTHV 241753Z AUTO 30009KT 10SM CLR 18/01 A2990 RMK AO2 SLP125 T01830011 10194 20106 58016
KFDK - Frederick, Maryland, USA
Distance from station: W 47mi, 75km
Updated: Fri, 24-Oct-2014 1:45pm EDT
Clear
Clear
 Wind from WNW
Wind: WNW 8 mph , 13 km/h
Temperature: 72°F , 22°C
Dew Point: 36°F , 2°C
Humidity: 27%
Barometer: 29.96 inHg , 1014.6 hPa
Clouds: Clear
Visibility: 10 miles , 16 km
2014/10/24 17:45 KFDK 241745Z 30007KT 10SM SKC 22/02 A2996
 
KESN - Easton/Newnam, Maryland, USA
Distance from station: SSE 48mi, 78km
Updated: Fri, 24-Oct-2014 1:50pm EDT
Partly cloudy
Partly cloudy
 Wind from NW
Wind: NW 12 mph , 19 km/h, Gust: 20 mph , 31 km/h
Temperature: 68°F , 20°C
Dew Point: 46°F , 8°C
Humidity: 46%
Barometer: 29.91 inHg , 1012.9 hPa
Clouds: Partly cloudy
Visibility: 10 miles , 16 km
Cloud details: Partly cloudy 6000 ft
2014/10/24 17:50 KESN 241750Z 32010G17KT 10SM SCT060 20/08 A2991
KDCA - Washington/Natl, Washington D.c., USA
Distance from station: SW 49mi, 79km
Updated: Fri, 24-Oct-2014 1:52pm EDT
Overcast
Overcast
 Wind from NW
Wind: NW 10 mph , 17 km/h
Temperature: 70°F , 21°C
Dew Point: 39°F , 4°C
Humidity: 33%
Barometer: 29.92 inHg , 1013.2 hPa
Clouds: Overcast
Visibility: 10 miles , 16 km
Cloud details: Overcast 25000 ft
2014/10/24 17:52 KDCA 241752Z 32009KT 10SM OVC250 21/04 A2992 RMK AO2 SLP131 T02060044 10206 20133 58022
 
KLNS - Lancaster, Pennsylvania, USA
Distance from station: N 49mi, 79km
Updated: Fri, 24-Oct-2014 1:53pm EDT
Clear
Clear
 Wind from NW
Wind: NW 14 mph , 22 km/h
Temperature: 64°F , 18°C
Dew Point: 43°F , 6°C
Humidity: 46%
Barometer: 29.86 inHg , 1011.2 hPa
Clouds: Clear
Visibility: 10 miles , 16 km
2014/10/24 17:53 KLNS 241753Z 31012KT 10SM CLR 18/06 A2986 RMK AO2 SLP111 T01830061 10189 20117 58015
KILG - Wilmington, Delaware, USA
Distance from station: ENE 50mi, 81km
Updated: Fri, 24-Oct-2014 1:51pm EDT
Clear
Clear
 Wind from NW
Wind: NW 20 mph , 31 km/h, Gust: 26 mph , 43 km/h
Temperature: 68°F , 20°C
Dew Point: 45°F , 7°C
Humidity: 43%
Barometer: 29.85 inHg , 1010.8 hPa
Clouds: Clear
Visibility: 10 miles , 16 km
2014/10/24 17:51 KILG 241751Z 31017G23KT 10SM CLR 20/07 A2985 RMK AO2 SLP107 T02000072 10200 20133 58017